sensor_id;sensor_type;location;lat;lon;timestamp;pressure;altitude;pressure_sealevel;temperature;humidity
49949;BME280;35840;45.982;8.890;2022-11-25T00:01:18;98408.84;;;5.47;74.54
49949;BME280;35840;45.982;8.890;2022-11-25T00:03:46;98401.19;;;5.47;74.97
49949;BME280;35840;45.982;8.890;2022-11-25T00:06:18;98401.03;;;5.51;74.72
49949;BME280;35840;45.982;8.890;2022-11-25T00:08:49;98396.09;;;5.47;74.26
49949;BME280;35840;45.982;8.890;2022-11-25T00:11:17;98403.00;;;5.45;74.49
49949;BME280;35840;45.982;8.890;2022-11-25T00:13:45;98403.13;;;5.42;75.09
49949;BME280;35840;45.982;8.890;2022-11-25T00:16:16;98394.69;;;5.40;75.41
49949;BME280;35840;45.982;8.890;2022-11-25T00:18:44;98405.66;;;5.42;74.89
49949;BME280;35840;45.982;8.890;2022-11-25T00:21:14;98412.59;;;5.38;75.32
49949;BME280;35840;45.982;8.890;2022-11-25T00:23:42;98405.00;;;5.37;75.70
49949;BME280;35840;45.982;8.890;2022-11-25T00:26:10;98413.72;;;5.31;75.65
49949;BME280;35840;45.982;8.890;2022-11-25T00:28:38;98415.97;;;5.39;75.30
49949;BME280;35840;45.982;8.890;2022-11-25T00:33:41;98406.63;;;5.39;75.40
49949;BME280;35840;45.982;8.890;2022-11-25T00:36:25;98412.47;;;5.41;75.79
49949;BME280;35840;45.982;8.890;2022-11-25T00:38:54;98420.66;;;5.49;75.18
49949;BME280;35840;45.982;8.890;2022-11-25T00:41:22;98428.13;;;5.54;75.54
49949;BME280;35840;45.982;8.890;2022-11-25T00:44:09;98419.13;;;5.45;75.07
49949;BME280;35840;45.982;8.890;2022-11-25T00:46:55;98439.28;;;5.51;75.46
49949;BME280;35840;45.982;8.890;2022-11-25T00:49:22;98449.81;;;5.42;75.95
49949;BME280;35840;45.982;8.890;2022-11-25T00:51:49;98433.22;;;5.32;75.59
49949;BME280;35840;45.982;8.890;2022-11-25T00:54:15;98451.63;;;5.40;75.75
49949;BME280;35840;45.982;8.890;2022-11-25T00:56:42;98457.16;;;5.50;76.01
49949;BME280;35840;45.982;8.890;2022-11-25T00:59:09;98459.84;;;5.47;75.74
49949;BME280;35840;45.982;8.890;2022-11-25T01:01:37;98473.25;;;5.52;76.24
49949;BME280;35840;45.982;8.890;2022-11-25T01:04:05;98481.91;;;5.48;75.70
49949;BME280;35840;45.982;8.890;2022-11-25T01:06:33;98482.03;;;5.45;76.00
49949;BME280;35840;45.982;8.890;2022-11-25T01:09:00;98485.41;;;5.45;76.32
49949;BME280;35840;45.982;8.890;2022-11-25T01:11:27;98479.97;;;5.55;76.34
49949;BME280;35840;45.982;8.890;2022-11-25T01:13:54;98482.66;;;5.50;76.60
49949;BME280;35840;45.982;8.890;2022-11-25T01:16:27;98482.03;;;5.45;76.44
49949;BME280;35840;45.982;8.890;2022-11-25T01:18:54;98485.22;;;5.50;76.42
49949;BME280;35840;45.982;8.890;2022-11-25T01:21:23;98495.28;;;5.55;76.26
49949;BME280;35840;45.982;8.890;2022-11-25T01:23:51;98489.38;;;5.52;76.75
49949;BME280;35840;45.982;8.890;2022-11-25T01:26:22;98493.06;;;5.45;76.85
49949;BME280;35840;45.982;8.890;2022-11-25T01:28:55;98494.84;;;5.43;77.14
49949;BME280;35840;45.982;8.890;2022-11-25T01:31:24;98490.28;;;5.51;76.67
49949;BME280;35840;45.982;8.890;2022-11-25T01:33:57;98494.41;;;5.54;76.71
49949;BME280;35840;45.982;8.890;2022-11-25T01:36:24;98485.00;;;5.56;77.02
49949;BME280;35840;45.982;8.890;2022-11-25T01:38:54;98487.44;;;5.59;76.63
49949;BME280;35840;45.982;8.890;2022-11-25T01:41:23;98473.13;;;5.55;77.09
49949;BME280;35840;45.982;8.890;2022-11-25T01:44:03;98486.84;;;5.52;77.28
49949;BME280;35840;45.982;8.890;2022-11-25T01:54:55;98491.16;;;5.50;77.78
49949;BME280;35840;45.982;8.890;2022-11-25T02:00:07;98498.03;;;5.48;77.86
49949;BME280;35840;45.982;8.890;2022-11-25T02:02:44;98494.84;;;5.43;78.03
49949;BME280;35840;45.982;8.890;2022-11-25T02:05:16;98501.25;;;5.54;77.87
49949;BME280;35840;45.982;8.890;2022-11-25T02:07:45;98512.06;;;5.60;77.41
49949;BME280;35840;45.982;8.890;2022-11-25T02:10:18;98516.09;;;5.66;77.61
49949;BME280;35840;45.982;8.890;2022-11-25T02:12:47;98512.88;;;5.61;77.64
49949;BME280;35840;45.982;8.890;2022-11-25T02:15:15;98512.28;;;5.54;77.81
49949;BME280;35840;45.982;8.890;2022-11-25T02:17:42;98519.41;;;5.46;77.63
49949;BME280;35840;45.982;8.890;2022-11-25T02:20:18;98514.59;;;5.60;77.81
49949;BME280;35840;45.982;8.890;2022-11-25T02:22:52;98505.69;;;5.48;78.31
49949;BME280;35840;45.982;8.890;2022-11-25T02:25:33;98502.44;;;5.45;78.12
49949;BME280;35840;45.982;8.890;2022-11-25T02:28:11;98505.63;;;5.50;77.84
49949;BME280;35840;45.982;8.890;2022-11-25T02:30:39;98516.56;;;5.54;77.45
49949;BME280;35840;45.982;8.890;2022-11-25T02:33:06;98520.88;;;5.51;77.35
49949;BME280;35840;45.982;8.890;2022-11-25T02:35:36;98522.72;;;5.48;77.24
49949;BME280;35840;45.982;8.890;2022-11-25T02:41:01;98521.22;;;5.42;78.22
49949;BME280;35840;45.982;8.890;2022-11-25T02:43:30;98515.19;;;5.45;77.23
49949;BME280;35840;45.982;8.890;2022-11-25T02:46:11;98521.53;;;5.57;77.34
49949;BME280;35840;45.982;8.890;2022-11-25T02:48:46;98502.75;;;5.59;77.32
49949;BME280;35840;45.982;8.890;2022-11-25T02:51:33;98509.09;;;5.49;77.93
49949;BME280;35840;45.982;8.890;2022-11-25T02:54:00;98499.94;;;5.43;77.97
49949;BME280;35840;45.982;8.890;2022-11-25T02:56:30;98511.28;;;5.58;77.49
49949;BME280;35840;45.982;8.890;2022-11-25T02:58:57;98519.84;;;5.57;77.21
49949;BME280;35840;45.982;8.890;2022-11-25T03:01:27;98510.69;;;5.51;77.27
49949;BME280;35840;45.982;8.890;2022-11-25T03:03:56;98508.84;;;5.55;77.96
49949;BME280;35840;45.982;8.890;2022-11-25T03:06:26;98516.56;;;5.54;77.15
49949;BME280;35840;45.982;8.890;2022-11-25T03:08:53;98520.22;;;5.46;77.66
49949;BME280;35840;45.982;8.890;2022-11-25T03:11:20;98499.28;;;5.38;77.57
49949;BME280;35840;45.982;8.890;2022-11-25T03:14:08;98503.84;;;5.52;77.61
49949;BME280;35840;45.982;8.890;2022-11-25T03:16:35;98505.59;;;5.51;78.22
49949;BME280;35840;45.982;8.890;2022-11-25T03:19:03;98505.75;;;5.47;78.44
49949;BME280;35840;45.982;8.890;2022-11-25T03:21:30;98514.59;;;5.60;78.55
49949;BME280;35840;45.982;8.890;2022-11-25T03:23:57;98519.50;;;5.43;77.89
49949;BME280;35840;45.982;8.890;2022-11-25T03:26:23;98522.28;;;5.37;78.15
49949;BME280;35840;45.982;8.890;2022-11-25T03:28:52;98508.09;;;5.29;78.70
49949;BME280;35840;45.982;8.890;2022-11-25T03:31:19;98522.34;;;5.35;78.15
49949;BME280;35840;45.982;8.890;2022-11-25T03:33:45;98525.66;;;5.37;77.89
49949;BME280;35840;45.982;8.890;2022-11-25T03:36:12;98515.63;;;5.32;78.01
49949;BME280;35840;45.982;8.890;2022-11-25T03:38:39;98522.16;;;5.40;78.15
49949;BME280;35840;45.982;8.890;2022-11-25T03:41:06;98524.81;;;5.37;78.06
49949;BME280;35840;45.982;8.890;2022-11-25T03:43:33;98533.03;;;5.45;77.67
49949;BME280;35840;45.982;8.890;2022-11-25T03:46:01;98545.72;;;5.46;77.75
49949;BME280;35840;45.982;8.890;2022-11-25T03:48:29;98547.66;;;5.40;77.87
49949;BME280;35840;45.982;8.890;2022-11-25T03:50:55;98555.53;;;5.33;78.33
49949;BME280;35840;45.982;8.890;2022-11-25T03:53:24;98549.56;;;5.34;78.26
49949;BME280;35840;45.982;8.890;2022-11-25T03:55:51;98540.22;;;5.33;78.41
49949;BME280;35840;45.982;8.890;2022-11-25T03:58:20;98541.06;;;5.34;78.16
49949;BME280;35840;45.982;8.890;2022-11-25T04:00:49;98543.41;;;5.40;78.54
49949;BME280;35840;45.982;8.890;2022-11-25T04:03:16;98547.81;;;5.35;78.72
49949;BME280;35840;45.982;8.890;2022-11-25T04:05:42;98530.03;;;5.33;78.51
49949;BME280;35840;45.982;8.890;2022-11-25T04:08:10;98519.59;;;5.40;77.73
49949;BME280;35840;45.982;8.890;2022-11-25T04:10:38;98541.38;;;5.48;77.81
49949;BME280;35840;45.982;8.890;2022-11-25T04:13:05;98543.09;;;5.48;77.81
49949;BME280;35840;45.982;8.890;2022-11-25T04:15:47;98533.03;;;5.45;78.09
49949;BME280;35840;45.982;8.890;2022-11-25T04:18:16;98534.63;;;5.47;77.70
49949;BME280;35840;45.982;8.890;2022-11-25T04:20:43;98535.69;;;5.42;77.44
49949;BME280;35840;45.982;8.890;2022-11-25T04:23:12;98535.97;;;5.34;77.88
49949;BME280;35840;45.982;8.890;2022-11-25T04:25:48;98526.94;;;5.25;78.03
49949;BME280;35840;45.982;8.890;2022-11-25T04:28:23;98540.34;;;5.30;78.13
49949;BME280;35840;45.982;8.890;2022-11-25T04:30:49;98540.47;;;5.27;77.34
49949;BME280;35840;45.982;8.890;2022-11-25T04:33:16;98546.31;;;5.29;77.55
49949;BME280;35840;45.982;8.890;2022-11-25T04:35:46;98539.78;;;5.22;77.75
49949;BME280;35840;45.982;8.890;2022-11-25T04:38:13;98542.34;;;5.22;77.10
49949;BME280;35840;45.982;8.890;2022-11-25T04:40:40;98532.50;;;5.11;77.86
49949;BME280;35840;45.982;8.890;2022-11-25T04:43:11;98541.16;;;5.07;78.18
49949;BME280;35840;45.982;8.890;2022-11-25T04:45:46;98550.97;;;5.18;78.37
49949;BME280;35840;45.982;8.890;2022-11-25T04:48:33;98551.66;;;5.23;78.12
49949;BME280;35840;45.982;8.890;2022-11-25T04:50:59;98564.47;;;5.20;77.79
49949;BME280;35840;45.982;8.890;2022-11-25T04:53:26;98556.31;;;5.12;78.04
49949;BME280;35840;45.982;8.890;2022-11-25T04:55:53;98550.34;;;5.11;78.46
49949;BME280;35840;45.982;8.890;2022-11-25T04:58:20;98547.75;;;5.13;78.12
49949;BME280;35840;45.982;8.890;2022-11-25T05:01:07;98558.00;;;5.11;77.62
49949;BME280;35840;45.982;8.890;2022-11-25T05:03:36;98560.28;;;5.19;77.17
49949;BME280;35840;45.982;8.890;2022-11-25T05:06:06;98562.09;;;5.15;77.12
49949;BME280;35840;45.982;8.890;2022-11-25T05:08:36;98567.63;;;5.03;78.10
49949;BME280;35840;45.982;8.890;2022-11-25T05:11:02;98567.53;;;5.06;77.97
49949;BME280;35840;45.982;8.890;2022-11-25T05:13:29;98568.34;;;5.07;77.15
49949;BME280;35840;45.982;8.890;2022-11-25T05:15:58;98561.81;;;4.99;76.92
49949;BME280;35840;45.982;8.890;2022-11-25T05:18:25;98567.94;;;4.94;77.96
49949;BME280;35840;45.982;8.890;2022-11-25T05:20:52;98569.00;;;4.88;78.38
49949;BME280;35840;45.982;8.890;2022-11-25T05:23:20;98572.22;;;4.93;77.79
49949;BME280;35840;45.982;8.890;2022-11-25T05:25:47;98562.03;;;4.93;76.96
49949;BME280;35840;45.982;8.890;2022-11-25T05:28:36;98569.56;;;4.96;77.00
49949;BME280;35840;45.982;8.890;2022-11-25T05:31:03;98574.78;;;4.93;77.26
49949;BME280;35840;45.982;8.890;2022-11-25T05:33:30;98574.97;;;4.87;76.98
49949;BME280;35840;45.982;8.890;2022-11-25T05:36:00;98581.50;;;4.94;75.75
49949;BME280;35840;45.982;8.890;2022-11-25T05:38:34;98580.91;;;4.88;76.51
49949;BME280;35840;45.982;8.890;2022-11-25T05:41:04;98577.63;;;4.84;76.11
49949;BME280;35840;45.982;8.890;2022-11-25T05:43:32;98578.00;;;4.72;75.90
49949;BME280;35840;45.982;8.890;2022-11-25T05:46:04;98589.81;;;4.74;76.39
49949;BME280;35840;45.982;8.890;2022-11-25T05:48:32;98587.16;;;4.77;75.34
49949;BME280;35840;45.982;8.890;2022-11-25T05:51:00;98595.56;;;4.81;75.04
49949;BME280;35840;45.982;8.890;2022-11-25T05:53:29;98587.16;;;4.77;74.29
49949;BME280;35840;45.982;8.890;2022-11-25T05:56:01;98589.41;;;4.61;74.77
49949;BME280;35840;45.982;8.890;2022-11-25T05:58:58;98588.31;;;4.69;75.08
49949;BME280;35840;45.982;8.890;2022-11-25T06:01:37;98589.34;;;4.63;75.10
49949;BME280;35840;45.982;8.890;2022-11-25T06:04:04;98593.03;;;4.54;75.08
49949;BME280;35840;45.982;8.890;2022-11-25T06:06:31;98581.97;;;4.55;74.93
49949;BME280;35840;45.982;8.890;2022-11-25T06:08:58;98584.50;;;4.55;75.00
49949;BME280;35840;45.982;8.890;2022-11-25T06:11:27;98591.28;;;4.55;74.55
49949;BME280;35840;45.982;8.890;2022-11-25T06:13:55;98588.75;;;4.55;74.41
49949;BME280;35840;45.982;8.890;2022-11-25T06:16:23;98595.28;;;4.37;74.98
49949;BME280;35840;45.982;8.890;2022-11-25T06:19:02;98601.41;;;4.29;74.86
49949;BME280;35840;45.982;8.890;2022-11-25T06:21:32;98603.84;;;4.34;75.47
49949;BME280;35840;45.982;8.890;2022-11-25T06:23:59;98596.16;;;4.36;75.11
49949;BME280;35840;45.982;8.890;2022-11-25T06:26:28;98600.38;;;4.37;74.90
49949;BME280;35840;45.982;8.890;2022-11-25T06:28:55;98596.91;;;4.38;74.00
49949;BME280;35840;45.982;8.890;2022-11-25T06:31:24;98600.22;;;4.41;73.63
49949;BME280;35840;45.982;8.890;2022-11-25T06:34:20;98610.56;;;4.37;74.45
49949;BME280;35840;45.982;8.890;2022-11-25T06:36:48;98608.00;;;4.37;74.26
49949;BME280;35840;45.982;8.890;2022-11-25T06:39:15;98611.84;;;4.22;74.69
49949;BME280;35840;45.982;8.890;2022-11-25T06:41:41;98606.00;;;4.18;74.74
49949;BME280;35840;45.982;8.890;2022-11-25T06:44:08;98613.63;;;4.20;74.69
49949;BME280;35840;45.982;8.890;2022-11-25T06:46:35;98618.50;;;4.26;74.25
49949;BME280;35840;45.982;8.890;2022-11-25T06:49:01;98629.34;;;4.33;74.13
49949;BME280;35840;45.982;8.890;2022-11-25T06:51:28;98634.66;;;4.25;74.23
49949;BME280;35840;45.982;8.890;2022-11-25T06:53:54;98630.63;;;4.18;74.21
49949;BME280;35840;45.982;8.890;2022-11-25T06:56:23;98627.81;;;4.27;74.74
49949;BME280;35840;45.982;8.890;2022-11-25T06:58:51;98627.72;;;4.30;74.02
49949;BME280;35840;45.982;8.890;2022-11-25T07:01:22;98633.81;;;4.24;74.07
49949;BME280;35840;45.982;8.890;2022-11-25T07:03:52;98635.44;;;4.27;73.96
49949;BME280;35840;45.982;8.890;2022-11-25T07:06:20;98625.50;;;4.19;74.51
49949;BME280;35840;45.982;8.890;2022-11-25T07:08:47;98640.59;;;4.25;74.34
49949;BME280;35840;45.982;8.890;2022-11-25T07:11:24;98642.34;;;4.23;74.28
49949;BME280;35840;45.982;8.890;2022-11-25T07:13:54;98629.16;;;4.10;74.42
49949;BME280;35840;45.982;8.890;2022-11-25T07:16:21;98637.16;;;4.26;73.89
49949;BME280;35840;45.982;8.890;2022-11-25T07:18:48;98638.81;;;4.27;73.45
49949;BME280;35840;45.982;8.890;2022-11-25T07:21:17;98651.03;;;4.16;73.96
49949;BME280;35840;45.982;8.890;2022-11-25T07:23:45;98642.56;;;4.16;74.58
49949;BME280;35840;45.982;8.890;2022-11-25T07:26:14;98652.50;;;4.23;74.53
49949;BME280;35840;45.982;8.890;2022-11-25T07:28:42;98649.81;;;4.28;74.61
49949;BME280;35840;45.982;8.890;2022-11-25T07:31:28;98655.81;;;4.27;74.17
49949;BME280;35840;45.982;8.890;2022-11-25T07:34:00;98651.63;;;4.24;73.80
49949;BME280;35840;45.982;8.890;2022-11-25T07:36:28;98650.88;;;4.21;74.12
49949;BME280;35840;45.982;8.890;2022-11-25T07:39:00;98659.38;;;4.21;74.13
49949;BME280;35840;45.982;8.890;2022-11-25T07:41:28;98650.88;;;4.21;74.11
49949;BME280;35840;45.982;8.890;2022-11-25T07:43:59;98665.28;;;4.22;74.48
49949;BME280;35840;45.982;8.890;2022-11-25T07:48:56;98667.59;;;4.29;74.76
49949;BME280;35840;45.982;8.890;2022-11-25T07:51:25;98665.91;;;4.30;74.59
49949;BME280;35840;45.982;8.890;2022-11-25T07:53:54;98666.03;;;4.25;74.87
49949;BME280;35840;45.982;8.890;2022-11-25T07:56:22;98678.53;;;4.33;74.97
49949;BME280;35840;45.982;8.890;2022-11-25T07:58:50;98680.19;;;4.34;74.30
49949;BME280;35840;45.982;8.890;2022-11-25T08:01:18;98686.31;;;4.28;74.58
49949;BME280;35840;45.982;8.890;2022-11-25T08:03:47;98691.09;;;4.38;75.04
49949;BME280;35840;45.982;8.890;2022-11-25T08:06:17;98695.31;;;4.39;75.16
49949;BME280;35840;45.982;8.890;2022-11-25T08:08:45;98696.69;;;4.49;75.97
49949;BME280;35840;45.982;8.890;2022-11-25T08:11:17;98691.50;;;4.54;76.14
49949;BME280;35840;45.982;8.890;2022-11-25T08:13:44;98697.13;;;4.63;75.16
49949;BME280;35840;45.982;8.890;2022-11-25T08:16:12;98685.91;;;4.69;76.09
49949;BME280;35840;45.982;8.890;2022-11-25T08:18:39;98689.16;;;4.74;76.17
49949;BME280;35840;45.982;8.890;2022-11-25T08:21:08;98695.16;;;4.72;77.54
49949;BME280;35840;45.982;8.890;2022-11-25T08:23:37;98689.59;;;4.87;76.92
49949;BME280;35840;45.982;8.890;2022-11-25T08:26:06;98693.44;;;5.00;77.39
49949;BME280;35840;45.982;8.890;2022-11-25T08:28:34;98698.47;;;5.02;77.32
49949;BME280;35840;45.982;8.890;2022-11-25T08:31:06;98688.88;;;5.09;76.83
49949;BME280;35840;45.982;8.890;2022-11-25T08:33:33;98693.06;;;5.11;76.85
49949;BME280;35840;45.982;8.890;2022-11-25T08:36:00;98699.72;;;5.15;77.29
49949;BME280;35840;45.982;8.890;2022-11-25T08:38:27;98702.22;;;5.17;76.93
49949;BME280;35840;45.982;8.890;2022-11-25T08:40:54;98696.25;;;5.18;76.99
49949;BME280;35840;45.982;8.890;2022-11-25T08:43:22;98709.63;;;5.25;76.92
49949;BME280;35840;45.982;8.890;2022-11-25T08:45:55;98714.69;;;5.26;77.10
49949;BME280;35840;45.982;8.890;2022-11-25T08:48:22;98717.75;;;5.36;77.47
49949;BME280;35840;45.982;8.890;2022-11-25T08:50:52;98718.53;;;5.38;77.49
49949;BME280;35840;45.982;8.890;2022-11-25T08:53:20;98715.75;;;5.44;77.54
49949;BME280;35840;45.982;8.890;2022-11-25T08:55:47;98719.16;;;5.45;78.48
49949;BME280;35840;45.982;8.890;2022-11-25T08:58:15;98719.75;;;5.53;78.14
49949;BME280;35840;45.982;8.890;2022-11-25T09:00:43;98715.97;;;5.63;77.92
49949;BME280;35840;45.982;8.890;2022-11-25T09:03:10;98719.22;;;5.68;77.88
49949;BME280;35840;45.982;8.890;2022-11-25T09:05:41;98723.16;;;5.77;75.88
49949;BME280;35840;45.982;8.890;2022-11-25T09:08:10;98724.78;;;5.80;75.78
49949;BME280;35840;45.982;8.890;2022-11-25T09:10:38;98730.59;;;5.83;76.43
49949;BME280;35840;45.982;8.890;2022-11-25T09:13:06;98722.00;;;5.86;76.03
49949;BME280;35840;45.982;8.890;2022-11-25T09:15:32;98716.72;;;5.91;75.63
49949;BME280;35840;45.982;8.890;2022-11-25T09:18:06;98726.94;;;5.91;75.65
49949;BME280;35840;45.982;8.890;2022-11-25T09:20:36;98704.97;;;5.86;75.65
49949;BME280;35840;45.982;8.890;2022-11-25T09:23:03;98713.81;;;6.01;74.98
49949;BME280;35840;45.982;8.890;2022-11-25T09:25:30;98716.38;;;6.01;74.99
49949;BME280;35840;45.982;8.890;2022-11-25T09:27:57;98711.84;;;6.10;74.42
49949;BME280;35840;45.982;8.890;2022-11-25T09:30:24;98706.72;;;6.10;73.35
49949;BME280;35840;45.982;8.890;2022-11-25T09:32:53;98719.44;;;6.11;72.60
49949;BME280;35840;45.982;8.890;2022-11-25T09:35:21;98718.00;;;6.04;73.10
49949;BME280;35840;45.982;8.890;2022-11-25T09:37:48;98716.88;;;6.11;73.12
49949;BME280;35840;45.982;8.890;2022-11-25T09:40:42;98713.22;;;6.18;73.18
49949;BME280;35840;45.982;8.890;2022-11-25T09:52:22;98718.75;;;6.30;73.48
49949;BME280;35840;45.982;8.890;2022-11-25T10:00:31;98711.59;;;6.40;74.55
49949;BME280;35840;45.982;8.890;2022-11-25T10:03:09;98711.53;;;6.41;74.67
49949;BME280;35840;45.982;8.890;2022-11-25T10:05:56;98713.91;;;6.46;74.53
49949;BME280;35840;45.982;8.890;2022-11-25T10:08:41;98709.94;;;6.61;72.17
49949;BME280;35840;45.982;8.890;2022-11-25T10:11:17;98701.22;;;6.65;71.37
49949;BME280;35840;45.982;8.890;2022-11-25T10:13:55;98699.28;;;6.71;71.18
49949;BME280;35840;45.982;8.890;2022-11-25T10:16:27;98669.00;;;6.62;70.79
49949;BME280;35840;45.982;8.890;2022-11-25T10:21:41;98687.97;;;7.20;67.91
49949;BME280;35840;45.982;8.890;2022-11-25T10:24:13;98681.91;;;7.22;67.82
49949;BME280;35840;45.982;8.890;2022-11-25T10:26:42;98688.28;;;7.33;69.14
49949;BME280;35840;45.982;8.890;2022-11-25T10:31:41;98676.97;;;7.59;69.08
49949;BME280;35840;45.982;8.890;2022-11-25T10:34:16;98678.81;;;7.55;68.11
49949;BME280;35840;45.982;8.890;2022-11-25T10:36:49;98665.41;;;7.50;68.08
49949;BME280;35840;45.982;8.890;2022-11-25T10:39:22;98662.56;;;7.56;68.98
49949;BME280;35840;45.982;8.890;2022-11-25T10:41:57;98653.56;;;7.68;63.09
49949;BME280;35840;45.982;8.890;2022-11-25T10:44:29;98643.56;;;7.62;62.46
49949;BME280;35840;45.982;8.890;2022-11-25T10:55:35;98636.44;;;7.88;62.98
49949;BME280;35840;45.982;8.890;2022-11-25T10:58:35;98629.56;;;7.90;63.41
49949;BME280;35840;45.982;8.890;2022-11-25T11:01:05;98631.16;;;7.92;64.15
49949;BME280;35840;45.982;8.890;2022-11-25T11:03:33;98628.38;;;7.97;64.45
49949;BME280;35840;45.982;8.890;2022-11-25T11:06:00;98629.19;;;7.98;63.71
49949;BME280;35840;45.982;8.890;2022-11-25T11:08:38;98622.97;;;8.03;61.07
49949;BME280;35840;45.982;8.890;2022-11-25T11:11:19;98619.84;;;8.16;61.19
49949;BME280;35840;45.982;8.890;2022-11-25T11:13:47;98615.06;;;8.27;57.84
49949;BME280;35840;45.982;8.890;2022-11-25T11:16:39;98617.00;;;8.22;58.34
49949;BME280;35840;45.982;8.890;2022-11-25T11:19:20;98610.16;;;8.22;57.50
49949;BME280;35840;45.982;8.890;2022-11-25T11:21:48;98607.66;;;8.21;57.65
49949;BME280;35840;45.982;8.890;2022-11-25T11:24:27;98600.81;;;8.21;57.01
49949;BME280;35840;45.982;8.890;2022-11-25T11:27:23;98589.38;;;8.28;61.00
49949;BME280;35840;45.982;8.890;2022-11-25T11:30:19;98596.06;;;8.31;60.51
49949;BME280;35840;45.982;8.890;2022-11-25T11:32:56;98590.50;;;8.40;61.42
49949;BME280;35840;45.982;8.890;2022-11-25T11:38:25;98580.25;;;8.59;60.10
49949;BME280;35840;45.982;8.890;2022-11-25T11:41:03;98577.69;;;8.59;60.39
49949;BME280;35840;45.982;8.890;2022-11-25T11:51:34;98567.66;;;8.72;59.43
49949;BME280;35840;45.982;8.890;2022-11-25T11:56:56;98571.56;;;8.62;58.17
49949;BME280;35840;45.982;8.890;2022-11-25T12:05:14;98566.34;;;8.99;56.39
49949;BME280;35840;45.982;8.890;2022-11-25T12:13:04;98546.09;;;9.10;56.20
49949;BME280;35840;45.982;8.890;2022-11-25T12:18:54;98550.69;;;9.21;58.87
49949;BME280;35840;45.982;8.890;2022-11-25T12:24:30;98544.41;;;9.26;60.57
49949;BME280;35840;45.982;8.890;2022-11-25T12:29:54;98533.50;;;9.55;55.91
49949;BME280;35840;45.982;8.890;2022-11-25T12:35:03;98532.88;;;9.67;55.44
49949;BME280;35840;45.982;8.890;2022-11-25T12:37:36;98533.66;;;9.83;55.62
49949;BME280;35840;45.982;8.890;2022-11-25T12:40:14;98536.38;;;9.96;55.38
49949;BME280;35840;45.982;8.890;2022-11-25T12:42:43;98524.22;;;10.00;54.19
49949;BME280;35840;45.982;8.890;2022-11-25T12:45:24;98524.94;;;10.02;55.39
49949;BME280;35840;45.982;8.890;2022-11-25T12:47:52;98525.84;;;10.17;57.29
49949;BME280;35840;45.982;8.890;2022-11-25T12:50:23;98523.28;;;10.17;56.97
49949;BME280;35840;45.982;8.890;2022-11-25T12:53:08;98510.16;;;10.22;57.88
49949;BME280;35840;45.982;8.890;2022-11-25T12:55:41;98522.38;;;10.18;58.83
49949;BME280;35840;45.982;8.890;2022-11-25T12:58:28;98509.44;;;10.20;61.01
49949;BME280;35840;45.982;8.890;2022-11-25T13:07:24;98481.66;;;10.26;59.07
49949;BME280;35840;45.982;8.890;2022-11-25T13:10:16;98491.81;;;10.44;59.32
49949;BME280;35840;45.982;8.890;2022-11-25T13:13:00;98493.50;;;10.29;58.73
49949;BME280;35840;45.982;8.890;2022-11-25T13:15:37;98495.75;;;10.19;59.72
49949;BME280;35840;45.982;8.890;2022-11-25T13:18:11;98488.50;;;10.11;58.78
49949;BME280;35840;45.982;8.890;2022-11-25T13:20:50;98479.13;;;10.10;59.18
49949;BME280;35840;45.982;8.890;2022-11-25T13:25:49;98480.66;;;9.98;58.05
49949;BME280;35840;45.982;8.890;2022-11-25T13:28:34;98478.50;;;9.91;58.33
49949;BME280;35840;45.982;8.890;2022-11-25T13:31:23;98480.81;;;9.95;61.21
49949;BME280;35840;45.982;8.890;2022-11-25T13:34:07;98480.63;;;10.29;59.62
49949;BME280;35840;45.982;8.890;2022-11-25T13:39:34;98486.31;;;10.50;55.14
49949;BME280;35840;45.982;8.890;2022-11-25T13:42:25;98484.94;;;10.59;54.62
49949;BME280;35840;45.982;8.890;2022-11-25T13:44:57;98487.63;;;10.72;52.88
49949;BME280;35840;45.982;8.890;2022-11-25T13:50:05;98484.06;;;10.74;52.59
49949;BME280;35840;45.982;8.890;2022-11-25T14:06:03;98485.63;;;10.91;57.66
49949;BME280;35840;45.982;8.890;2022-11-25T14:17:46;98492.78;;;11.00;58.51
49949;BME280;35840;45.982;8.890;2022-11-25T14:25:55;98496.84;;;11.05;57.57
49949;BME280;35840;45.982;8.890;2022-11-25T14:28:26;98502.19;;;11.01;56.02
49949;BME280;35840;45.982;8.890;2022-11-25T14:30:57;98501.16;;;11.04;56.30
49949;BME280;35840;45.982;8.890;2022-11-25T14:33:33;98514.09;;;11.02;56.30
49949;BME280;35840;45.982;8.890;2022-11-25T14:36:11;98509.72;;;11.05;56.17
49949;BME280;35840;45.982;8.890;2022-11-25T14:38:47;98508.53;;;10.96;55.13
49949;BME280;35840;45.982;8.890;2022-11-25T14:41:18;98506.28;;;10.90;56.78
49949;BME280;35840;45.982;8.890;2022-11-25T14:43:54;98510.06;;;10.84;56.28
49949;BME280;35840;45.982;8.890;2022-11-25T14:46:23;98520.44;;;10.82;55.58
49949;BME280;35840;45.982;8.890;2022-11-25T14:48:53;98516.19;;;10.67;56.55
49949;BME280;35840;45.982;8.890;2022-11-25T14:51:21;98522.31;;;10.64;57.66
49949;BME280;35840;45.982;8.890;2022-11-25T14:53:50;98525.25;;;10.58;57.40
49949;BME280;35840;45.982;8.890;2022-11-25T14:56:23;98522.94;;;10.39;57.57
49949;BME280;35840;45.982;8.890;2022-11-25T14:58:53;98533.59;;;10.31;57.94
49949;BME280;35840;45.982;8.890;2022-11-25T15:01:28;98527.03;;;10.11;58.01
49949;BME280;35840;45.982;8.890;2022-11-25T15:04:18;98527.88;;;9.96;61.11
49949;BME280;35840;45.982;8.890;2022-11-25T15:06:52;98528.88;;;9.77;61.37
49949;BME280;35840;45.982;8.890;2022-11-25T15:11:55;98532.53;;;9.41;61.10
49949;BME280;35840;45.982;8.890;2022-11-25T15:14:25;98534.81;;;9.30;60.72
49949;BME280;35840;45.982;8.890;2022-11-25T15:16:54;98536.97;;;9.22;61.17
49949;BME280;35840;45.982;8.890;2022-11-25T15:19:24;98535.47;;;9.18;63.06
49949;BME280;35840;45.982;8.890;2022-11-25T15:22:02;98537.84;;;9.05;62.95
49949;BME280;35840;45.982;8.890;2022-11-25T15:24:50;98535.88;;;8.92;63.40
49949;BME280;35840;45.982;8.890;2022-11-25T15:27:25;98540.66;;;8.83;64.35
49949;BME280;35840;45.982;8.890;2022-11-25T15:29:53;98551.59;;;8.86;64.80
49949;BME280;35840;45.982;8.890;2022-11-25T15:32:29;98543.06;;;8.68;64.71
49949;BME280;35840;45.982;8.890;2022-11-25T15:34:59;98556.59;;;8.72;65.02
49949;BME280;35840;45.982;8.890;2022-11-25T15:37:27;98558.00;;;8.60;65.13
49949;BME280;35840;45.982;8.890;2022-11-25T15:43:06;98556.88;;;8.48;66.15
49949;BME280;35840;45.982;8.890;2022-11-25T15:45:45;98562.88;;;8.47;66.17